sensor_id;sensor_type;location;lat;lon;timestamp;temperature;humidity
37446;DHT22;23307;51.136;14.942;2024-03-02T00:00:07;11.90;99.90
37446;DHT22;23307;51.136;14.942;2024-03-02T00:02:46;11.90;99.90
37446;DHT22;23307;51.136;14.942;2024-03-02T00:05:13;11.90;99.90
37446;DHT22;23307;51.136;14.942;2024-03-02T00:07:41;11.90;99.90
37446;DHT22;23307;51.136;14.942;2024-03-02T00:10:12;11.90;99.90
37446;DHT22;23307;51.136;14.942;2024-03-02T00:12:39;11.90;99.90
37446;DHT22;23307;51.136;14.942;2024-03-02T00:15:21;11.90;99.90
37446;DHT22;23307;51.136;14.942;2024-03-02T00:17:56;11.90;99.90
37446;DHT22;23307;51.136;14.942;2024-03-02T00:20:22;11.90;99.90
37446;DHT22;23307;51.136;14.942;2024-03-02T00:22:49;11.90;99.90
37446;DHT22;23307;51.136;14.942;2024-03-02T00:25:15;11.90;99.90
37446;DHT22;23307;51.136;14.942;2024-03-02T00:27:40;11.90;99.90
37446;DHT22;23307;51.136;14.942;2024-03-02T00:33:07;11.80;99.90
37446;DHT22;23307;51.136;14.942;2024-03-02T00:35:33;11.90;99.90
37446;DHT22;23307;51.136;14.942;2024-03-02T00:38:04;11.90;99.90
37446;DHT22;23307;51.136;14.942;2024-03-02T00:40:30;11.90;99.90
37446;DHT22;23307;51.136;14.942;2024-03-02T00:42:56;11.80;99.90
37446;DHT22;23307;51.136;14.942;2024-03-02T00:45:21;11.80;99.90
37446;DHT22;23307;51.136;14.942;2024-03-02T00:47:47;11.80;99.90
37446;DHT22;23307;51.136;14.942;2024-03-02T00:50:13;11.80;99.90
37446;DHT22;23307;51.136;14.942;2024-03-02T00:52:40;11.80;99.90
37446;DHT22;23307;51.136;14.942;2024-03-02T00:55:05;11.80;99.90
37446;DHT22;23307;51.136;14.942;2024-03-02T00:57:34;11.80;99.90
37446;DHT22;23307;51.136;14.942;2024-03-02T01:00:00;11.80;99.90
37446;DHT22;23307;51.136;14.942;2024-03-02T01:02:26;11.80;99.90
37446;DHT22;23307;51.136;14.942;2024-03-02T01:04:52;11.80;99.90
37446;DHT22;23307;51.136;14.942;2024-03-02T01:07:17;11.80;99.90
37446;DHT22;23307;51.136;14.942;2024-03-02T01:09:43;11.80;99.90
37446;DHT22;23307;51.136;14.942;2024-03-02T01:12:08;11.90;99.90
37446;DHT22;23307;51.136;14.942;2024-03-02T01:14:33;11.90;99.90
37446;DHT22;23307;51.136;14.942;2024-03-02T01:17:00;11.90;99.90
37446;DHT22;23307;51.136;14.942;2024-03-02T01:19:28;11.90;99.90
37446;DHT22;23307;51.136;14.942;2024-03-02T01:21:54;11.90;99.90
37446;DHT22;23307;51.136;14.942;2024-03-02T01:24:19;11.90;99.90
37446;DHT22;23307;51.136;14.942;2024-03-02T01:26:45;12.00;99.90
37446;DHT22;23307;51.136;14.942;2024-03-02T01:29:10;12.00;99.90
37446;DHT22;23307;51.136;14.942;2024-03-02T01:31:36;11.90;99.90
37446;DHT22;23307;51.136;14.942;2024-03-02T01:34:01;11.90;99.90
37446;DHT22;23307;51.136;14.942;2024-03-02T01:36:27;11.90;99.90
37446;DHT22;23307;51.136;14.942;2024-03-02T01:38:52;11.90;99.90
37446;DHT22;23307;51.136;14.942;2024-03-02T01:41:18;11.90;99.90
37446;DHT22;23307;51.136;14.942;2024-03-02T01:43:43;12.00;99.90
37446;DHT22;23307;51.136;14.942;2024-03-02T01:46:09;12.00;99.90
37446;DHT22;23307;51.136;14.942;2024-03-02T01:48:34;12.00;99.90
37446;DHT22;23307;51.136;14.942;2024-03-02T01:51:00;12.00;99.90
37446;DHT22;23307;51.136;14.942;2024-03-02T01:53:26;11.90;99.90
37446;DHT22;23307;51.136;14.942;2024-03-02T01:55:52;11.90;99.90
37446;DHT22;23307;51.136;14.942;2024-03-02T01:58:17;11.90;99.90
37446;DHT22;23307;51.136;14.942;2024-03-02T02:00:43;11.90;99.90
37446;DHT22;23307;51.136;14.942;2024-03-02T02:03:08;11.90;99.90
37446;DHT22;23307;51.136;14.942;2024-03-02T02:05:34;11.90;99.90
37446;DHT22;23307;51.136;14.942;2024-03-02T02:08:01;11.90;99.90
37446;DHT22;23307;51.136;14.942;2024-03-02T02:10:26;11.90;99.90
37446;DHT22;23307;51.136;14.942;2024-03-02T02:12:52;11.90;99.90
37446;DHT22;23307;51.136;14.942;2024-03-02T02:15:28;11.90;99.90
37446;DHT22;23307;51.136;14.942;2024-03-02T02:17:55;11.90;99.90
37446;DHT22;23307;51.136;14.942;2024-03-02T02:20:20;11.90;99.90
37446;DHT22;23307;51.136;14.942;2024-03-02T02:22:54;11.90;99.90
37446;DHT22;23307;51.136;14.942;2024-03-02T02:25:20;11.80;99.90
37446;DHT22;23307;51.136;14.942;2024-03-02T02:27:46;11.80;99.90
37446;DHT22;23307;51.136;14.942;2024-03-02T02:30:12;11.80;99.90
37446;DHT22;23307;51.136;14.942;2024-03-02T02:32:37;11.80;99.90
37446;DHT22;23307;51.136;14.942;2024-03-02T02:35:03;11.80;99.90
37446;DHT22;23307;51.136;14.942;2024-03-02T02:37:30;11.80;99.90
37446;DHT22;23307;51.136;14.942;2024-03-02T02:39:55;11.80;99.90
37446;DHT22;23307;51.136;14.942;2024-03-02T02:42:21;11.90;99.90
37446;DHT22;23307;51.136;14.942;2024-03-02T02:44:46;11.90;99.90
37446;DHT22;23307;51.136;14.942;2024-03-02T02:47:11;11.90;99.90
37446;DHT22;23307;51.136;14.942;2024-03-02T02:49:37;11.80;99.90
37446;DHT22;23307;51.136;14.942;2024-03-02T02:52:03;11.80;99.90
37446;DHT22;23307;51.136;14.942;2024-03-02T02:54:28;11.90;99.90
37446;DHT22;23307;51.136;14.942;2024-03-02T02:56:53;11.80;99.90
37446;DHT22;23307;51.136;14.942;2024-03-02T02:59:19;11.80;99.90
37446;DHT22;23307;51.136;14.942;2024-03-02T03:01:44;11.80;99.90
37446;DHT22;23307;51.136;14.942;2024-03-02T03:04:10;11.90;99.90
37446;DHT22;23307;51.136;14.942;2024-03-02T03:06:35;11.90;99.90
37446;DHT22;23307;51.136;14.942;2024-03-02T03:09:01;11.90;99.90
37446;DHT22;23307;51.136;14.942;2024-03-02T03:11:27;11.90;99.90
37446;DHT22;23307;51.136;14.942;2024-03-02T03:13:53;12.00;99.90
37446;DHT22;23307;51.136;14.942;2024-03-02T03:16:19;12.00;99.90
37446;DHT22;23307;51.136;14.942;2024-03-02T03:18:45;12.00;99.90
37446;DHT22;23307;51.136;14.942;2024-03-02T03:21:10;12.10;99.90
37446;DHT22;23307;51.136;14.942;2024-03-02T03:23:36;12.10;99.90
37446;DHT22;23307;51.136;14.942;2024-03-02T03:26:01;12.10;99.90
37446;DHT22;23307;51.136;14.942;2024-03-02T03:28:27;12.10;99.90
37446;DHT22;23307;51.136;14.942;2024-03-02T03:30:52;12.10;99.90
37446;DHT22;23307;51.136;14.942;2024-03-02T03:33:18;12.10;99.90
37446;DHT22;23307;51.136;14.942;2024-03-02T03:35:43;12.10;99.90
37446;DHT22;23307;51.136;14.942;2024-03-02T03:38:09;12.10;99.90
37446;DHT22;23307;51.136;14.942;2024-03-02T03:40:34;12.10;99.90
37446;DHT22;23307;51.136;14.942;2024-03-02T03:43:00;12.10;99.90
37446;DHT22;23307;51.136;14.942;2024-03-02T03:45:25;12.10;99.90
37446;DHT22;23307;51.136;14.942;2024-03-02T03:47:52;12.10;99.90
37446;DHT22;23307;51.136;14.942;2024-03-02T03:50:18;12.00;99.90
37446;DHT22;23307;51.136;14.942;2024-03-02T03:52:43;12.00;99.90
37446;DHT22;23307;51.136;14.942;2024-03-02T03:55:09;12.00;99.90
37446;DHT22;23307;51.136;14.942;2024-03-02T03:57:35;12.00;99.90
37446;DHT22;23307;51.136;14.942;2024-03-02T04:00:01;12.00;99.90
37446;DHT22;23307;51.136;14.942;2024-03-02T04:02:26;12.00;99.90
37446;DHT22;23307;51.136;14.942;2024-03-02T04:04:52;12.00;99.90
37446;DHT22;23307;51.136;14.942;2024-03-02T04:07:17;12.00;99.90
37446;DHT22;23307;51.136;14.942;2024-03-02T04:09:43;12.00;99.90
37446;DHT22;23307;51.136;14.942;2024-03-02T04:12:08;12.00;99.90
37446;DHT22;23307;51.136;14.942;2024-03-02T04:14:34;12.00;99.90
37446;DHT22;23307;51.136;14.942;2024-03-02T04:16:59;12.00;99.90
37446;DHT22;23307;51.136;14.942;2024-03-02T04:19:25;12.00;99.90
37446;DHT22;23307;51.136;14.942;2024-03-02T04:21:51;11.90;99.90
37446;DHT22;23307;51.136;14.942;2024-03-02T04:24:16;11.90;99.90
37446;DHT22;23307;51.136;14.942;2024-03-02T04:26:41;11.90;99.90
37446;DHT22;23307;51.136;14.942;2024-03-02T04:29:07;11.90;99.90
37446;DHT22;23307;51.136;14.942;2024-03-02T04:31:33;11.90;99.90
37446;DHT22;23307;51.136;14.942;2024-03-02T04:33:58;11.90;99.90
37446;DHT22;23307;51.136;14.942;2024-03-02T04:36:24;11.80;99.90
37446;DHT22;23307;51.136;14.942;2024-03-02T04:38:49;11.80;99.90
37446;DHT22;23307;51.136;14.942;2024-03-02T04:41:15;11.80;99.90
37446;DHT22;23307;51.136;14.942;2024-03-02T04:43:40;11.80;99.90
37446;DHT22;23307;51.136;14.942;2024-03-02T04:46:06;11.80;99.90
37446;DHT22;23307;51.136;14.942;2024-03-02T04:48:32;11.80;99.90
37446;DHT22;23307;51.136;14.942;2024-03-02T04:50:58;11.80;99.90
37446;DHT22;23307;51.136;14.942;2024-03-02T04:53:23;11.80;99.90
37446;DHT22;23307;51.136;14.942;2024-03-02T04:55:48;11.80;99.90
37446;DHT22;23307;51.136;14.942;2024-03-02T04:58:49;11.80;99.90
37446;DHT22;23307;51.136;14.942;2024-03-02T05:01:15;11.70;99.90
37446;DHT22;23307;51.136;14.942;2024-03-02T05:03:42;11.70;99.90
37446;DHT22;23307;51.136;14.942;2024-03-02T05:06:08;11.70;99.90
37446;DHT22;23307;51.136;14.942;2024-03-02T05:08:34;11.70;99.90
37446;DHT22;23307;51.136;14.942;2024-03-02T05:10:59;11.80;99.90
37446;DHT22;23307;51.136;14.942;2024-03-02T05:13:44;11.70;99.90
37446;DHT22;23307;51.136;14.942;2024-03-02T05:16:10;11.70;99.90
37446;DHT22;23307;51.136;14.942;2024-03-02T05:18:37;11.70;99.90
37446;DHT22;23307;51.136;14.942;2024-03-02T05:21:03;11.80;99.90
37446;DHT22;23307;51.136;14.942;2024-03-02T05:23:29;11.80;99.90
37446;DHT22;23307;51.136;14.942;2024-03-02T05:25:54;11.80;99.90
37446;DHT22;23307;51.136;14.942;2024-03-02T05:28:20;11.80;99.90
37446;DHT22;23307;51.136;14.942;2024-03-02T05:30:45;11.80;99.90
37446;DHT22;23307;51.136;14.942;2024-03-02T05:33:11;11.80;99.90
37446;DHT22;23307;51.136;14.942;2024-03-02T05:35:37;11.80;99.90
37446;DHT22;23307;51.136;14.942;2024-03-02T05:38:02;11.80;99.90
37446;DHT22;23307;51.136;14.942;2024-03-02T05:40:28;11.70;99.90
37446;DHT22;23307;51.136;14.942;2024-03-02T05:42:53;11.70;99.90
37446;DHT22;23307;51.136;14.942;2024-03-02T05:45:19;11.80;99.90
37446;DHT22;23307;51.136;14.942;2024-03-02T05:47:44;11.70;99.90
37446;DHT22;23307;51.136;14.942;2024-03-02T05:50:10;11.70;99.90
37446;DHT22;23307;51.136;14.942;2024-03-02T05:52:35;11.70;99.90
37446;DHT22;23307;51.136;14.942;2024-03-02T05:55:01;11.80;99.90
37446;DHT22;23307;51.136;14.942;2024-03-02T05:57:26;11.80;99.90
37446;DHT22;23307;51.136;14.942;2024-03-02T06:00:04;11.70;99.90
37446;DHT22;23307;51.136;14.942;2024-03-02T06:02:33;11.80;99.90
37446;DHT22;23307;51.136;14.942;2024-03-02T06:05:00;11.70;99.90
37446;DHT22;23307;51.136;14.942;2024-03-02T06:07:26;11.70;99.90
37446;DHT22;23307;51.136;14.942;2024-03-02T06:09:51;11.70;99.90
37446;DHT22;23307;51.136;14.942;2024-03-02T06:12:18;11.70;99.90
37446;DHT22;23307;51.136;14.942;2024-03-02T06:14:44;11.70;99.90
37446;DHT22;23307;51.136;14.942;2024-03-02T06:17:09;11.70;99.90
37446;DHT22;23307;51.136;14.942;2024-03-02T06:19:35;11.70;99.90
37446;DHT22;23307;51.136;14.942;2024-03-02T06:22:00;11.70;99.90
37446;DHT22;23307;51.136;14.942;2024-03-02T06:24:26;11.70;99.90
37446;DHT22;23307;51.136;14.942;2024-03-02T06:26:51;11.70;99.90
37446;DHT22;23307;51.136;14.942;2024-03-02T06:29:17;11.70;99.90
37446;DHT22;23307;51.136;14.942;2024-03-02T06:31:43;11.70;99.90
37446;DHT22;23307;51.136;14.942;2024-03-02T06:34:08;11.70;99.90
37446;DHT22;23307;51.136;14.942;2024-03-02T06:36:34;11.70;99.90
37446;DHT22;23307;51.136;14.942;2024-03-02T06:38:59;11.70;99.90
37446;DHT22;23307;51.136;14.942;2024-03-02T06:41:25;11.70;99.90
37446;DHT22;23307;51.136;14.942;2024-03-02T06:43:52;11.70;99.90
37446;DHT22;23307;51.136;14.942;2024-03-02T06:46:25;11.70;99.90
37446;DHT22;23307;51.136;14.942;2024-03-02T06:48:50;11.70;99.90
37446;DHT22;23307;51.136;14.942;2024-03-02T06:51:16;11.70;99.90
37446;DHT22;23307;51.136;14.942;2024-03-02T06:53:41;11.70;99.90
37446;DHT22;23307;51.136;14.942;2024-03-02T06:56:07;11.70;99.90
37446;DHT22;23307;51.136;14.942;2024-03-02T06:58:33;11.70;99.90
37446;DHT22;23307;51.136;14.942;2024-03-02T07:00:59;11.70;99.90
37446;DHT22;23307;51.136;14.942;2024-03-02T07:03:25;11.70;99.90
37446;DHT22;23307;51.136;14.942;2024-03-02T07:05:51;11.70;99.90
37446;DHT22;23307;51.136;14.942;2024-03-02T07:08:16;11.70;99.90
37446;DHT22;23307;51.136;14.942;2024-03-02T07:10:42;11.70;99.90
37446;DHT22;23307;51.136;14.942;2024-03-02T07:13:08;11.70;99.90
37446;DHT22;23307;51.136;14.942;2024-03-02T07:15:33;11.70;99.90
37446;DHT22;23307;51.136;14.942;2024-03-02T07:18:02;11.70;99.90
37446;DHT22;23307;51.136;14.942;2024-03-02T07:20:28;11.70;99.90
37446;DHT22;23307;51.136;14.942;2024-03-02T07:22:53;11.70;99.90
37446;DHT22;23307;51.136;14.942;2024-03-02T07:25:18;11.70;99.90
37446;DHT22;23307;51.136;14.942;2024-03-02T07:27:44;11.70;99.90
37446;DHT22;23307;51.136;14.942;2024-03-02T07:30:13;11.60;99.90
37446;DHT22;23307;51.136;14.942;2024-03-02T07:32:38;11.60;99.90
37446;DHT22;23307;51.136;14.942;2024-03-02T07:35:04;11.60;99.90
37446;DHT22;23307;51.136;14.942;2024-03-02T07:37:30;11.60;99.90
37446;DHT22;23307;51.136;14.942;2024-03-02T07:39:56;11.60;99.90
37446;DHT22;23307;51.136;14.942;2024-03-02T07:42:21;11.60;99.90
37446;DHT22;23307;51.136;14.942;2024-03-02T07:44:47;11.60;99.90
37446;DHT22;23307;51.136;14.942;2024-03-02T07:47:12;11.60;99.90
37446;DHT22;23307;51.136;14.942;2024-03-02T07:49:38;11.60;99.90
37446;DHT22;23307;51.136;14.942;2024-03-02T07:52:04;11.60;99.90
37446;DHT22;23307;51.136;14.942;2024-03-02T07:54:29;11.70;99.90
37446;DHT22;23307;51.136;14.942;2024-03-02T07:56:55;11.70;99.90
37446;DHT22;23307;51.136;14.942;2024-03-02T07:59:20;11.70;99.90
37446;DHT22;23307;51.136;14.942;2024-03-02T08:01:48;11.80;99.90
37446;DHT22;23307;51.136;14.942;2024-03-02T08:04:14;11.90;99.90
37446;DHT22;23307;51.136;14.942;2024-03-02T08:06:39;11.90;99.90
37446;DHT22;23307;51.136;14.942;2024-03-02T08:09:05;12.10;99.90
37446;DHT22;23307;51.136;14.942;2024-03-02T08:11:35;12.20;99.90
37446;DHT22;23307;51.136;14.942;2024-03-02T08:14:00;12.30;99.90
37446;DHT22;23307;51.136;14.942;2024-03-02T08:16:26;12.50;99.90
37446;DHT22;23307;51.136;14.942;2024-03-02T08:18:52;12.60;99.90
37446;DHT22;23307;51.136;14.942;2024-03-02T08:21:18;12.70;99.90
37446;DHT22;23307;51.136;14.942;2024-03-02T08:23:44;12.80;99.90
37446;DHT22;23307;51.136;14.942;2024-03-02T08:26:10;12.80;99.90
37446;DHT22;23307;51.136;14.942;2024-03-02T08:28:36;12.90;99.90
37446;DHT22;23307;51.136;14.942;2024-03-02T08:31:06;12.90;99.90
37446;DHT22;23307;51.136;14.942;2024-03-02T08:33:32;12.90;99.90
37446;DHT22;23307;51.136;14.942;2024-03-02T08:35:57;12.80;99.90
37446;DHT22;23307;51.136;14.942;2024-03-02T08:38:23;12.70;99.90
37446;DHT22;23307;51.136;14.942;2024-03-02T08:40:50;12.70;99.90
37446;DHT22;23307;51.136;14.942;2024-03-02T08:43:15;12.60;99.90
37446;DHT22;23307;51.136;14.942;2024-03-02T08:45:41;12.60;99.90
37446;DHT22;23307;51.136;14.942;2024-03-02T08:48:09;12.70;99.90
37446;DHT22;23307;51.136;14.942;2024-03-02T08:50:36;12.70;99.90
37446;DHT22;23307;51.136;14.942;2024-03-02T08:53:03;12.80;99.90
37446;DHT22;23307;51.136;14.942;2024-03-02T08:55:28;12.80;99.90
37446;DHT22;23307;51.136;14.942;2024-03-02T08:57:55;12.80;99.90
37446;DHT22;23307;51.136;14.942;2024-03-02T09:00:20;12.80;99.90
37446;DHT22;23307;51.136;14.942;2024-03-02T09:02:46;12.80;99.90
37446;DHT22;23307;51.136;14.942;2024-03-02T09:05:12;12.90;99.90
37446;DHT22;23307;51.136;14.942;2024-03-02T09:07:38;13.00;99.90
37446;DHT22;23307;51.136;14.942;2024-03-02T09:10:05;13.00;99.90
37446;DHT22;23307;51.136;14.942;2024-03-02T09:12:30;13.00;99.90
37446;DHT22;23307;51.136;14.942;2024-03-02T09:14:56;13.00;99.90
37446;DHT22;23307;51.136;14.942;2024-03-02T09:17:22;13.10;99.90
37446;DHT22;23307;51.136;14.942;2024-03-02T09:19:48;13.10;99.90
37446;DHT22;23307;51.136;14.942;2024-03-02T09:22:13;13.10;99.90
37446;DHT22;23307;51.136;14.942;2024-03-02T09:24:39;13.10;99.90
37446;DHT22;23307;51.136;14.942;2024-03-02T09:27:04;13.10;99.90
37446;DHT22;23307;51.136;14.942;2024-03-02T09:29:31;13.00;99.90
37446;DHT22;23307;51.136;14.942;2024-03-02T09:31:56;12.90;99.90
37446;DHT22;23307;51.136;14.942;2024-03-02T09:34:22;12.90;99.90
37446;DHT22;23307;51.136;14.942;2024-03-02T09:36:47;12.90;99.90
37446;DHT22;23307;51.136;14.942;2024-03-02T09:39:13;12.90;99.90
37446;DHT22;23307;51.136;14.942;2024-03-02T09:41:39;12.90;99.90
37446;DHT22;23307;51.136;14.942;2024-03-02T09:44:05;12.90;99.90
37446;DHT22;23307;51.136;14.942;2024-03-02T09:46:31;12.90;99.90
37446;DHT22;23307;51.136;14.942;2024-03-02T09:48:58;13.00;99.90
37446;DHT22;23307;51.136;14.942;2024-03-02T09:51:24;13.00;99.90
37446;DHT22;23307;51.136;14.942;2024-03-02T09:53:50;13.00;99.90
37446;DHT22;23307;51.136;14.942;2024-03-02T09:56:15;13.00;99.90
37446;DHT22;23307;51.136;14.942;2024-03-02T09:58:41;13.00;99.90
37446;DHT22;23307;51.136;14.942;2024-03-02T10:01:07;13.10;99.90
37446;DHT22;23307;51.136;14.942;2024-03-02T10:03:34;13.10;99.90
37446;DHT22;23307;51.136;14.942;2024-03-02T10:06:19;13.20;99.90
37446;DHT22;23307;51.136;14.942;2024-03-02T10:08:44;13.20;99.90
37446;DHT22;23307;51.136;14.942;2024-03-02T10:11:10;13.20;99.90
37446;DHT22;23307;51.136;14.942;2024-03-02T10:13:36;13.10;99.90
37446;DHT22;23307;51.136;14.942;2024-03-02T10:16:11;13.10;99.90
37446;DHT22;23307;51.136;14.942;2024-03-02T10:18:37;13.10;99.90
37446;DHT22;23307;51.136;14.942;2024-03-02T10:21:15;13.10;99.90
37446;DHT22;23307;51.136;14.942;2024-03-02T10:23:40;13.20;99.90
37446;DHT22;23307;51.136;14.942;2024-03-02T10:26:17;13.20;99.90
37446;DHT22;23307;51.136;14.942;2024-03-02T10:28:47;13.30;99.90
37446;DHT22;23307;51.136;14.942;2024-03-02T10:31:24;13.20;99.90
37446;DHT22;23307;51.136;14.942;2024-03-02T10:33:56;13.20;99.90
37446;DHT22;23307;51.136;14.942;2024-03-02T10:36:22;13.20;99.90
37446;DHT22;23307;51.136;14.942;2024-03-02T10:38:48;13.20;99.90
37446;DHT22;23307;51.136;14.942;2024-03-02T10:41:18;13.20;99.90
37446;DHT22;23307;51.136;14.942;2024-03-02T10:43:45;13.30;99.90
37446;DHT22;23307;51.136;14.942;2024-03-02T10:46:13;13.30;99.90
37446;DHT22;23307;51.136;14.942;2024-03-02T10:48:40;13.40;99.90
37446;DHT22;23307;51.136;14.942;2024-03-02T10:51:06;13.40;99.90
37446;DHT22;23307;51.136;14.942;2024-03-02T10:55:59;13.50;99.90
37446;DHT22;23307;51.136;14.942;2024-03-02T10:58:32;13.50;99.90
37446;DHT22;23307;51.136;14.942;2024-03-02T11:01:01;13.50;99.90
37446;DHT22;23307;51.136;14.942;2024-03-02T11:03:27;13.50;99.90
37446;DHT22;23307;51.136;14.942;2024-03-02T11:05:54;13.60;99.90
37446;DHT22;23307;51.136;14.942;2024-03-02T11:08:21;13.60;99.90
37446;DHT22;23307;51.136;14.942;2024-03-02T11:10:57;13.60;99.90
37446;DHT22;23307;51.136;14.942;2024-03-02T11:13:29;13.50;99.90
37446;DHT22;23307;51.136;14.942;2024-03-02T11:15:59;13.50;99.90
37446;DHT22;23307;51.136;14.942;2024-03-02T11:18:29;13.60;99.90
37446;DHT22;23307;51.136;14.942;2024-03-02T11:20:55;13.60;99.90
37446;DHT22;23307;51.136;14.942;2024-03-02T11:23:32;13.60;99.90
37446;DHT22;23307;51.136;14.942;2024-03-02T11:26:20;13.60;99.90
37446;DHT22;23307;51.136;14.942;2024-03-02T11:28:46;13.60;99.90
37446;DHT22;23307;51.136;14.942;2024-03-02T11:31:12;13.60;99.90
37446;DHT22;23307;51.136;14.942;2024-03-02T11:33:37;13.60;99.90
37446;DHT22;23307;51.136;14.942;2024-03-02T11:36:03;13.60;99.90
37446;DHT22;23307;51.136;14.942;2024-03-02T11:38:31;13.60;99.90
37446;DHT22;23307;51.136;14.942;2024-03-02T11:41:00;13.50;99.90
37446;DHT22;23307;51.136;14.942;2024-03-02T11:43:28;13.50;99.90
37446;DHT22;23307;51.136;14.942;2024-03-02T11:45:58;13.50;99.90
37446;DHT22;23307;51.136;14.942;2024-03-02T11:48:25;13.50;99.90
37446;DHT22;23307;51.136;14.942;2024-03-02T11:50:51;13.50;99.90
37446;DHT22;23307;51.136;14.942;2024-03-02T11:53:17;13.50;99.90
37446;DHT22;23307;51.136;14.942;2024-03-02T11:55:44;13.50;99.90
37446;DHT22;23307;51.136;14.942;2024-03-02T11:58:12;13.50;99.90
37446;DHT22;23307;51.136;14.942;2024-03-02T12:00:38;13.60;99.90
37446;DHT22;23307;51.136;14.942;2024-03-02T12:03:05;13.60;99.90
37446;DHT22;23307;51.136;14.942;2024-03-02T12:05:31;13.70;99.90
37446;DHT22;23307;51.136;14.942;2024-03-02T12:07:58;13.80;99.90
37446;DHT22;23307;51.136;14.942;2024-03-02T12:10:25;13.90;99.90
37446;DHT22;23307;51.136;14.942;2024-03-02T12:13:00;13.90;99.90
37446;DHT22;23307;51.136;14.942;2024-03-02T12:15:28;14.00;99.90
37446;DHT22;23307;51.136;14.942;2024-03-02T12:17:55;14.00;99.90
37446;DHT22;23307;51.136;14.942;2024-03-02T12:20:21;14.00;99.90
37446;DHT22;23307;51.136;14.942;2024-03-02T12:22:46;14.00;99.90
37446;DHT22;23307;51.136;14.942;2024-03-02T12:25:12;14.00;99.90
37446;DHT22;23307;51.136;14.942;2024-03-02T12:27:39;14.00;99.90
37446;DHT22;23307;51.136;14.942;2024-03-02T12:30:05;14.10;99.90
37446;DHT22;23307;51.136;14.942;2024-03-02T12:32:33;14.10;99.90
37446;DHT22;23307;51.136;14.942;2024-03-02T12:34:59;14.30;99.90
37446;DHT22;23307;51.136;14.942;2024-03-02T12:37:26;14.30;99.90
37446;DHT22;23307;51.136;14.942;2024-03-02T12:39:53;14.30;99.90
37446;DHT22;23307;51.136;14.942;2024-03-02T12:42:18;14.30;99.90
37446;DHT22;23307;51.136;14.942;2024-03-02T12:44:43;14.30;99.90
37446;DHT22;23307;51.136;14.942;2024-03-02T12:47:09;14.40;99.90
37446;DHT22;23307;51.136;14.942;2024-03-02T12:49:35;14.40;99.90
37446;DHT22;23307;51.136;14.942;2024-03-02T12:52:00;14.50;99.90
37446;DHT22;23307;51.136;14.942;2024-03-02T12:54:26;14.70;99.90
37446;DHT22;23307;51.136;14.942;2024-03-02T12:56:52;14.70;99.90
37446;DHT22;23307;51.136;14.942;2024-03-02T12:59:20;14.80;99.90
37446;DHT22;23307;51.136;14.942;2024-03-02T13:01:54;14.80;99.90
37446;DHT22;23307;51.136;14.942;2024-03-02T13:04:27;14.70;99.90
37446;DHT22;23307;51.136;14.942;2024-03-02T13:06:54;14.70;99.90
37446;DHT22;23307;51.136;14.942;2024-03-02T13:09:21;14.70;99.90
37446;DHT22;23307;51.136;14.942;2024-03-02T13:11:47;14.70;99.90
37446;DHT22;23307;51.136;14.942;2024-03-02T13:14:13;14.70;99.90
37446;DHT22;23307;51.136;14.942;2024-03-02T13:16:39;14.70;99.90
37446;DHT22;23307;51.136;14.942;2024-03-02T13:19:13;14.70;99.90
37446;DHT22;23307;51.136;14.942;2024-03-02T13:21:39;14.70;99.90
37446;DHT22;23307;51.136;14.942;2024-03-02T13:24:05;14.70;99.90
37446;DHT22;23307;51.136;14.942;2024-03-02T13:26:31;14.80;99.90
37446;DHT22;23307;51.136;14.942;2024-03-02T13:28:57;14.80;99.90
37446;DHT22;23307;51.136;14.942;2024-03-02T13:31:22;14.80;99.90
37446;DHT22;23307;51.136;14.942;2024-03-02T13:33:48;14.80;99.90
37446;DHT22;23307;51.136;14.942;2024-03-02T13:36:13;14.70;99.90
37446;DHT22;23307;51.136;14.942;2024-03-02T13:38:39;14.80;99.90
37446;DHT22;23307;51.136;14.942;2024-03-02T13:41:05;14.70;99.90
37446;DHT22;23307;51.136;14.942;2024-03-02T13:43:30;14.80;99.90
37446;DHT22;23307;51.136;14.942;2024-03-02T13:46:01;14.70;99.90
37446;DHT22;23307;51.136;14.942;2024-03-02T13:48:26;14.70;99.90
37446;DHT22;23307;51.136;14.942;2024-03-02T13:50:52;14.70;99.90
37446;DHT22;23307;51.136;14.942;2024-03-02T13:53:18;14.80;99.90
37446;DHT22;23307;51.136;14.942;2024-03-02T13:55:44;14.80;99.90
37446;DHT22;23307;51.136;14.942;2024-03-02T13:58:10;14.80;99.90
37446;DHT22;23307;51.136;14.942;2024-03-02T14:00:37;14.80;99.90
37446;DHT22;23307;51.136;14.942;2024-03-02T14:03:04;14.80;99.90
37446;DHT22;23307;51.136;14.942;2024-03-02T14:05:30;14.80;99.90
37446;DHT22;23307;51.136;14.942;2024-03-02T14:07:55;14.90;99.90
37446;DHT22;23307;51.136;14.942;2024-03-02T14:10:21;15.00;99.90
37446;DHT22;23307;51.136;14.942;2024-03-02T14:12:48;15.00;99.90
37446;DHT22;23307;51.136;14.942;2024-03-02T14:15:13;15.10;99.90
37446;DHT22;23307;51.136;14.942;2024-03-02T14:17:39;15.10;99.90
37446;DHT22;23307;51.136;14.942;2024-03-02T14:20:05;15.10;99.90
37446;DHT22;23307;51.136;14.942;2024-03-02T14:22:31;15.20;99.90
37446;DHT22;23307;51.136;14.942;2024-03-02T14:24:57;15.20;99.90
37446;DHT22;23307;51.136;14.942;2024-03-02T14:27:23;15.20;99.90
37446;DHT22;23307;51.136;14.942;2024-03-02T14:29:48;15.20;99.90
37446;DHT22;23307;51.136;14.942;2024-03-02T14:32:14;15.20;99.90
37446;DHT22;23307;51.136;14.942;2024-03-02T14:34:39;15.20;99.90
37446;DHT22;23307;51.136;14.942;2024-03-02T14:37:04;15.30;99.90
37446;DHT22;23307;51.136;14.942;2024-03-02T14:39:30;15.30;99.90
37446;DHT22;23307;51.136;14.942;2024-03-02T14:42:00;15.40;99.90
37446;DHT22;23307;51.136;14.942;2024-03-02T14:44:25;15.40;99.90
37446;DHT22;23307;51.136;14.942;2024-03-02T14:46:51;15.50;99.90
37446;DHT22;23307;51.136;14.942;2024-03-02T14:49:17;15.50;99.90
37446;DHT22;23307;51.136;14.942;2024-03-02T14:51:44;15.50;99.90
37446;DHT22;23307;51.136;14.942;2024-03-02T14:54:09;15.50;99.90
37446;DHT22;23307;51.136;14.942;2024-03-02T14:56:35;15.50;99.90
37446;DHT22;23307;51.136;14.942;2024-03-02T14:59:00;15.50;99.90
37446;DHT22;23307;51.136;14.942;2024-03-02T15:01:26;15.50;99.90
37446;DHT22;23307;51.136;14.942;2024-03-02T15:03:51;15.50;99.90
37446;DHT22;23307;51.136;14.942;2024-03-02T15:06:17;15.40;99.90
37446;DHT22;23307;51.136;14.942;2024-03-02T15:08:43;15.40;99.90
37446;DHT22;23307;51.136;14.942;2024-03-02T15:11:11;15.40;99.90
37446;DHT22;23307;51.136;14.942;2024-03-02T15:13:37;15.30;99.90
37446;DHT22;23307;51.136;14.942;2024-03-02T15:16:02;15.30;99.90